sensor_id;sensor_type;location;lat;lon;timestamp;pressure;altitude;pressure_sealevel;temperature;humidity
21545;BME280;10933;50.754;11.508;2023-12-07T00:01:19;99873.22;;;4.81;nan
21545;BME280;10933;50.754;11.508;2023-12-07T00:03:45;99866.81;;;4.42;nan
21545;BME280;10933;50.754;11.508;2023-12-07T00:06:10;99874.47;;;4.79;nan
21545;BME280;10933;50.754;11.508;2023-12-07T00:08:36;99874.88;;;5.02;nan
21545;BME280;10933;50.754;11.508;2023-12-07T00:11:02;99882.25;;;5.20;nan
21545;BME280;10933;50.754;11.508;2023-12-07T00:13:28;99880.81;;;5.17;nan
21545;BME280;10933;50.754;11.508;2023-12-07T00:15:54;99877.75;;;4.94;nan
21545;BME280;10933;50.754;11.508;2023-12-07T00:18:20;99880.66;;;4.86;nan
21545;BME280;10933;50.754;11.508;2023-12-07T00:20:45;99872.81;;;4.51;nan
21545;BME280;10933;50.754;11.508;2023-12-07T00:23:11;99871.53;;;4.21;nan
21545;BME280;10933;50.754;11.508;2023-12-07T00:25:37;99880.22;;;4.76;nan
21545;BME280;10933;50.754;11.508;2023-12-07T00:28:03;99882.28;;;4.87;nan
21545;BME280;10933;50.754;11.508;2023-12-07T00:30:30;99871.34;;;4.35;nan
21545;BME280;10933;50.754;11.508;2023-12-07T00:32:56;99864.31;;;4.08;nan
21545;BME280;10933;50.754;11.508;2023-12-07T00:35:22;99867.97;;;4.00;nan
21545;BME280;10933;50.754;11.508;2023-12-07T00:37:48;99867.00;;;4.21;nan
21545;BME280;10933;50.754;11.508;2023-12-07T00:40:14;99874.44;;;4.39;nan
21545;BME280;10933;50.754;11.508;2023-12-07T00:42:40;99872.72;;;4.11;nan
21545;BME280;10933;50.754;11.508;2023-12-07T00:45:06;99890.91;;;4.62;nan
21545;BME280;10933;50.754;11.508;2023-12-07T00:47:32;99896.25;;;4.89;nan
21545;BME280;10933;50.754;11.508;2023-12-07T00:49:57;99906.13;;;5.08;nan
21545;BME280;10933;50.754;11.508;2023-12-07T00:52:23;99909.84;;;5.14;nan
21545;BME280;10933;50.754;11.508;2023-12-07T00:54:49;99906.53;;;5.05;nan
21545;BME280;10933;50.754;11.508;2023-12-07T00:57:15;99901.00;;;4.87;nan
21545;BME280;10933;50.754;11.508;2023-12-07T00:59:40;99903.22;;;4.70;nan
21545;BME280;10933;50.754;11.508;2023-12-07T01:02:06;99896.03;;;4.51;nan
21545;BME280;10933;50.754;11.508;2023-12-07T01:04:33;99896.59;;;4.26;nan
21545;BME280;10933;50.754;11.508;2023-12-07T01:06:59;99903.66;;;4.60;nan
21545;BME280;10933;50.754;11.508;2023-12-07T01:09:25;99900.66;;;4.16;nan
21545;BME280;10933;50.754;11.508;2023-12-07T01:11:52;99901.13;;;4.39;nan
21545;BME280;10933;50.754;11.508;2023-12-07T01:14:18;99900.28;;;4.32;nan
21545;BME280;10933;50.754;11.508;2023-12-07T01:16:44;99931.84;;;5.09;nan
21545;BME280;10933;50.754;11.508;2023-12-07T01:19:11;99916.97;;;4.47;nan
21545;BME280;10933;50.754;11.508;2023-12-07T01:21:40;99917.59;;;4.49;nan
21545;BME280;10933;50.754;11.508;2023-12-07T01:24:09;99925.03;;;4.73;nan
21545;BME280;10933;50.754;11.508;2023-12-07T01:26:35;99933.47;;;4.70;nan
21545;BME280;10933;50.754;11.508;2023-12-07T01:29:01;99924.59;;;4.50;nan
21545;BME280;10933;50.754;11.508;2023-12-07T01:31:29;99930.81;;;4.70;nan
21545;BME280;10933;50.754;11.508;2023-12-07T01:33:55;99935.53;;;4.88;nan
21545;BME280;10933;50.754;11.508;2023-12-07T01:36:21;99945.59;;;4.93;nan
21545;BME280;10933;50.754;11.508;2023-12-07T01:38:47;99950.75;;;5.01;nan
21545;BME280;10933;50.754;11.508;2023-12-07T01:41:13;99959.19;;;5.05;nan
21545;BME280;10933;50.754;11.508;2023-12-07T01:43:45;99961.25;;;4.96;nan
21545;BME280;10933;50.754;11.508;2023-12-07T01:46:12;99954.22;;;4.68;nan
21545;BME280;10933;50.754;11.508;2023-12-07T01:48:39;99948.81;;;4.42;nan
21545;BME280;10933;50.754;11.508;2023-12-07T01:51:05;99955.72;;;4.97;nan
21545;BME280;10933;50.754;11.508;2023-12-07T01:53:32;99955.84;;;4.69;nan
21545;BME280;10933;50.754;11.508;2023-12-07T01:55:59;99943.66;;;4.40;nan
21545;BME280;10933;50.754;11.508;2023-12-07T01:58:25;99963.47;;;4.59;nan
21545;BME280;10933;50.754;11.508;2023-12-07T02:00:51;99955.78;;;4.43;nan
21545;BME280;10933;50.754;11.508;2023-12-07T02:03:17;99950.00;;;4.26;nan
21545;BME280;10933;50.754;11.508;2023-12-07T02:05:47;99957.91;;;4.61;nan
21545;BME280;10933;50.754;11.508;2023-12-07T02:08:14;99965.94;;;4.67;nan
21545;BME280;10933;50.754;11.508;2023-12-07T02:10:40;99975.44;;;4.96;nan
21545;BME280;10933;50.754;11.508;2023-12-07T02:13:07;99995.22;;;5.28;nan
21545;BME280;10933;50.754;11.508;2023-12-07T02:15:33;99998.94;;;5.21;nan
21545;BME280;10933;50.754;11.508;2023-12-07T02:18:06;99989.63;;;5.03;nan
21545;BME280;10933;50.754;11.508;2023-12-07T02:21:06;100001.38;;;5.16;nan
21545;BME280;10933;50.754;11.508;2023-12-07T02:23:39;99999.94;;;5.13;nan
21545;BME280;10933;50.754;11.508;2023-12-07T02:26:34;100004.84;;;5.03;nan
21545;BME280;10933;50.754;11.508;2023-12-07T02:28:59;99994.53;;;4.73;nan
21545;BME280;10933;50.754;11.508;2023-12-07T02:31:25;99996.59;;;4.71;nan
21545;BME280;10933;50.754;11.508;2023-12-07T02:33:51;99982.53;;;4.50;nan
21545;BME280;10933;50.754;11.508;2023-12-07T02:36:22;99988.53;;;4.65;nan
21545;BME280;10933;50.754;11.508;2023-12-07T02:38:51;99990.22;;;4.72;nan
21545;BME280;10933;50.754;11.508;2023-12-07T02:41:20;99989.19;;;4.80;nan
21545;BME280;10933;50.754;11.508;2023-12-07T02:43:46;99988.34;;;4.66;nan
21545;BME280;10933;50.754;11.508;2023-12-07T02:46:12;99973.66;;;4.36;nan
21545;BME280;10933;50.754;11.508;2023-12-07T02:48:38;99992.09;;;4.92;nan
21545;BME280;10933;50.754;11.508;2023-12-07T02:51:04;99998.91;;;5.14;nan
21545;BME280;10933;50.754;11.508;2023-12-07T02:53:30;99985.47;;;4.75;nan
21545;BME280;10933;50.754;11.508;2023-12-07T02:55:55;99986.78;;;4.31;nan
21545;BME280;10933;50.754;11.508;2023-12-07T02:58:21;99969.66;;;4.19;nan
21545;BME280;10933;50.754;11.508;2023-12-07T03:00:47;99979.56;;;4.31;nan
21545;BME280;10933;50.754;11.508;2023-12-07T03:03:12;99972.53;;;4.17;nan
21545;BME280;10933;50.754;11.508;2023-12-07T03:05:38;99991.84;;;4.73;nan
21545;BME280;10933;50.754;11.508;2023-12-07T03:08:04;100020.50;;;5.19;nan
21545;BME280;10933;50.754;11.508;2023-12-07T03:10:29;100009.78;;;4.93;nan
21545;BME280;10933;50.754;11.508;2023-12-07T03:12:55;100007.59;;;4.49;nan
21545;BME280;10933;50.754;11.508;2023-12-07T03:15:21;100000.63;;;4.48;nan
21545;BME280;10933;50.754;11.508;2023-12-07T03:17:47;100008.06;;;4.65;nan
21545;BME280;10933;50.754;11.508;2023-12-07T03:20:12;99998.81;;;4.13;nan
21545;BME280;10933;50.754;11.508;2023-12-07T03:22:38;100005.97;;;4.54;nan
21545;BME280;10933;50.754;11.508;2023-12-07T03:25:04;100015.91;;;4.80;nan
21545;BME280;10933;50.754;11.508;2023-12-07T03:27:31;100020.22;;;4.81;nan
21545;BME280;10933;50.754;11.508;2023-12-07T03:29:57;100011.84;;;4.30;nan
21545;BME280;10933;50.754;11.508;2023-12-07T03:32:22;100013.34;;;4.46;nan
21545;BME280;10933;50.754;11.508;2023-12-07T03:34:48;100007.75;;;4.34;nan
21545;BME280;10933;50.754;11.508;2023-12-07T03:37:14;100010.72;;;4.65;nan
21545;BME280;10933;50.754;11.508;2023-12-07T03:39:39;100019.66;;;4.99;nan
21545;BME280;10933;50.754;11.508;2023-12-07T03:42:05;100006.28;;;4.25;nan
21545;BME280;10933;50.754;11.508;2023-12-07T03:44:31;99998.28;;;3.90;nan
21545;BME280;10933;50.754;11.508;2023-12-07T03:46:57;100006.22;;;4.11;nan
21545;BME280;10933;50.754;11.508;2023-12-07T03:49:22;100004.00;;;4.22;nan
21545;BME280;10933;50.754;11.508;2023-12-07T03:51:48;100000.41;;;4.01;nan
21545;BME280;10933;50.754;11.508;2023-12-07T03:54:14;100001.53;;;4.20;nan
21545;BME280;10933;50.754;11.508;2023-12-07T03:56:39;100018.75;;;4.65;nan
21545;BME280;10933;50.754;11.508;2023-12-07T03:59:08;100017.06;;;4.51;nan
21545;BME280;10933;50.754;11.508;2023-12-07T04:01:34;100014.75;;;4.35;nan
21545;BME280;10933;50.754;11.508;2023-12-07T04:03:59;100034.00;;;4.78;nan
21545;BME280;10933;50.754;11.508;2023-12-07T04:06:26;100019.47;;;4.33;nan
21545;BME280;10933;50.754;11.508;2023-12-07T04:08:52;100019.78;;;4.17;nan
21545;BME280;10933;50.754;11.508;2023-12-07T04:11:18;100017.88;;;4.52;nan
21545;BME280;10933;50.754;11.508;2023-12-07T04:13:45;100012.13;;;4.48;nan
21545;BME280;10933;50.754;11.508;2023-12-07T04:16:11;100020.88;;;4.90;nan
21545;BME280;10933;50.754;11.508;2023-12-07T04:18:37;100036.16;;;5.09;nan
21545;BME280;10933;50.754;11.508;2023-12-07T04:21:03;100037.53;;;4.92;nan
21545;BME280;10933;50.754;11.508;2023-12-07T04:23:31;100049.91;;;5.06;nan
21545;BME280;10933;50.754;11.508;2023-12-07T04:25:56;100047.28;;;5.39;nan
21545;BME280;10933;50.754;11.508;2023-12-07T04:28:22;100044.28;;;4.75;nan
21545;BME280;10933;50.754;11.508;2023-12-07T04:30:48;100044.91;;;4.77;nan
21545;BME280;10933;50.754;11.508;2023-12-07T04:33:14;100035.59;;;4.59;nan
21545;BME280;10933;50.754;11.508;2023-12-07T04:35:39;100030.22;;;4.46;nan
21545;BME280;10933;50.754;11.508;2023-12-07T04:38:05;100039.75;;;4.75;nan
21545;BME280;10933;50.754;11.508;2023-12-07T04:40:31;100053.63;;;5.31;nan
21545;BME280;10933;50.754;11.508;2023-12-07T04:42:56;100065.38;;;5.44;nan
21545;BME280;10933;50.754;11.508;2023-12-07T04:45:22;100053.31;;;4.80;nan
21545;BME280;10933;50.754;11.508;2023-12-07T04:47:48;100049.00;;;4.72;nan
21545;BME280;10933;50.754;11.508;2023-12-07T04:50:14;100065.16;;;5.12;nan
21545;BME280;10933;50.754;11.508;2023-12-07T04:52:40;100066.59;;;5.28;nan
21545;BME280;10933;50.754;11.508;2023-12-07T04:55:06;100065.13;;;4.99;nan
21545;BME280;10933;50.754;11.508;2023-12-07T04:57:36;100069.47;;;5.20;nan
21545;BME280;10933;50.754;11.508;2023-12-07T05:00:05;100065.13;;;5.19;nan
21545;BME280;10933;50.754;11.508;2023-12-07T05:02:35;100054.69;;;4.56;nan
21545;BME280;10933;50.754;11.508;2023-12-07T05:05:01;100051.94;;;4.43;nan
21545;BME280;10933;50.754;11.508;2023-12-07T05:07:27;100054.09;;;4.67;nan
21545;BME280;10933;50.754;11.508;2023-12-07T05:09:53;100054.09;;;4.61;nan
21545;BME280;10933;50.754;11.508;2023-12-07T05:12:19;100050.19;;;4.63;nan
21545;BME280;10933;50.754;11.508;2023-12-07T05:14:44;100045.84;;;4.49;nan
21545;BME280;10933;50.754;11.508;2023-12-07T05:17:10;100043.38;;;4.48;nan
21545;BME280;10933;50.754;11.508;2023-12-07T05:19:36;100053.28;;;4.60;nan
21545;BME280;10933;50.754;11.508;2023-12-07T05:22:02;100065.56;;;5.16;nan
21545;BME280;10933;50.754;11.508;2023-12-07T05:24:28;100070.47;;;4.99;nan
21545;BME280;10933;50.754;11.508;2023-12-07T05:26:54;100079.50;;;4.98;nan
21545;BME280;10933;50.754;11.508;2023-12-07T05:29:19;100078.06;;;5.02;nan
21545;BME280;10933;50.754;11.508;2023-12-07T05:31:49;100079.34;;;5.19;nan
21545;BME280;10933;50.754;11.508;2023-12-07T05:34:16;100078.06;;;5.02;nan
21545;BME280;10933;50.754;11.508;2023-12-07T05:36:43;100080.34;;;5.05;nan
21545;BME280;10933;50.754;11.508;2023-12-07T05:39:09;100088.38;;;5.12;nan
21545;BME280;10933;50.754;11.508;2023-12-07T05:41:36;100094.34;;;5.20;nan
21545;BME280;10933;50.754;11.508;2023-12-07T05:44:02;100098.72;;;5.35;nan
21545;BME280;10933;50.754;11.508;2023-12-07T05:46:29;100071.38;;;4.58;nan
21545;BME280;10933;50.754;11.508;2023-12-07T05:48:55;100065.78;;;4.12;nan
21545;BME280;10933;50.754;11.508;2023-12-07T05:51:22;100059.34;;;4.06;nan
21545;BME280;10933;50.754;11.508;2023-12-07T05:53:48;100058.38;;;4.14;nan
21545;BME280;10933;50.754;11.508;2023-12-07T05:56:21;100053.09;;;3.86;nan
21545;BME280;10933;50.754;11.508;2023-12-07T05:58:47;100050.28;;;3.94;nan
21545;BME280;10933;50.754;11.508;2023-12-07T06:01:19;100052.44;;;4.12;nan
21545;BME280;10933;50.754;11.508;2023-12-07T06:03:45;100077.06;;;4.55;nan
21545;BME280;10933;50.754;11.508;2023-12-07T06:06:11;100075.56;;;4.33;nan
21545;BME280;10933;50.754;11.508;2023-12-07T06:08:40;100070.03;;;4.06;nan
21545;BME280;10933;50.754;11.508;2023-12-07T06:11:07;100066.03;;;4.24;nan
21545;BME280;10933;50.754;11.508;2023-12-07T06:13:33;100047.94;;;3.84;nan
21545;BME280;10933;50.754;11.508;2023-12-07T06:15:59;100050.84;;;3.90;nan
21545;BME280;10933;50.754;11.508;2023-12-07T06:18:26;100058.81;;;4.18;nan
21545;BME280;10933;50.754;11.508;2023-12-07T06:20:53;100042.22;;;3.60;nan
21545;BME280;10933;50.754;11.508;2023-12-07T06:23:19;100057.88;;;3.97;nan
21545;BME280;10933;50.754;11.508;2023-12-07T06:25:50;100056.13;;;4.11;nan
21545;BME280;10933;50.754;11.508;2023-12-07T06:28:16;100053.31;;;3.91;nan
21545;BME280;10933;50.754;11.508;2023-12-07T06:30:41;100061.47;;;4.18;nan
21545;BME280;10933;50.754;11.508;2023-12-07T06:33:07;100062.34;;;3.90;nan
21545;BME280;10933;50.754;11.508;2023-12-07T06:35:34;100064.41;;;4.23;nan
21545;BME280;10933;50.754;11.508;2023-12-07T06:38:00;100060.94;;;3.94;nan
21545;BME280;10933;50.754;11.508;2023-12-07T06:40:26;100074.13;;;4.37;nan
21545;BME280;10933;50.754;11.508;2023-12-07T06:42:52;100072.69;;;4.00;nan
21545;BME280;10933;50.754;11.508;2023-12-07T06:45:17;100065.63;;;4.20;nan
21545;BME280;10933;50.754;11.508;2023-12-07T06:47:43;100088.63;;;4.62;nan
21545;BME280;10933;50.754;11.508;2023-12-07T06:50:09;100078.03;;;4.06;nan
21545;BME280;10933;50.754;11.508;2023-12-07T06:52:39;100083.28;;;4.21;nan
21545;BME280;10933;50.754;11.508;2023-12-07T06:55:06;100087.22;;;4.25;nan
21545;BME280;10933;50.754;11.508;2023-12-07T06:57:33;100083.94;;;4.30;nan
21545;BME280;10933;50.754;11.508;2023-12-07T07:00:03;100095.97;;;4.47;nan
21545;BME280;10933;50.754;11.508;2023-12-07T07:02:32;100112.41;;;5.05;nan
21545;BME280;10933;50.754;11.508;2023-12-07T07:04:58;100114.28;;;5.05;nan
21545;BME280;10933;50.754;11.508;2023-12-07T07:07:23;100122.91;;;5.07;nan
21545;BME280;10933;50.754;11.508;2023-12-07T07:09:51;100116.66;;;4.80;nan
21545;BME280;10933;50.754;11.508;2023-12-07T07:12:17;100122.75;;;4.60;nan
21545;BME280;10933;50.754;11.508;2023-12-07T07:14:43;100126.72;;;4.78;nan
21545;BME280;10933;50.754;11.508;2023-12-07T07:17:08;100123.31;;;4.56;nan
21545;BME280;10933;50.754;11.508;2023-12-07T07:19:34;100118.91;;;4.35;nan
21545;BME280;10933;50.754;11.508;2023-12-07T07:22:00;100125.56;;;4.52;nan
21545;BME280;10933;50.754;11.508;2023-12-07T07:24:26;100122.81;;;4.39;nan
21545;BME280;10933;50.754;11.508;2023-12-07T07:26:52;100132.16;;;4.56;nan
21545;BME280;10933;50.754;11.508;2023-12-07T07:29:17;100143.91;;;5.03;nan
21545;BME280;10933;50.754;11.508;2023-12-07T07:31:43;100153.03;;;5.28;nan
21545;BME280;10933;50.754;11.508;2023-12-07T07:34:09;100146.59;;;5.10;nan
21545;BME280;10933;50.754;11.508;2023-12-07T07:36:35;100132.47;;;4.33;nan
21545;BME280;10933;50.754;11.508;2023-12-07T07:39:00;100128.09;;;4.26;nan
21545;BME280;10933;50.754;11.508;2023-12-07T07:41:26;100136.16;;;4.73;nan
21545;BME280;10933;50.754;11.508;2023-12-07T07:43:52;100156.47;;;5.09;nan
21545;BME280;10933;50.754;11.508;2023-12-07T07:46:18;100153.81;;;5.09;nan
21545;BME280;10933;50.754;11.508;2023-12-07T07:48:43;100156.09;;;5.25;nan
21545;BME280;10933;50.754;11.508;2023-12-07T07:51:09;100165.53;;;5.15;nan
21545;BME280;10933;50.754;11.508;2023-12-07T07:53:35;100157.59;;;5.35;nan
21545;BME280;10933;50.754;11.508;2023-12-07T07:56:02;100165.28;;;5.03;nan
21545;BME280;10933;50.754;11.508;2023-12-07T07:58:28;100156.59;;;4.88;nan
21545;BME280;10933;50.754;11.508;2023-12-07T08:00:54;100158.19;;;4.76;nan
21545;BME280;10933;50.754;11.508;2023-12-07T08:03:19;100139.53;;;4.48;nan
21545;BME280;10933;50.754;11.508;2023-12-07T08:05:45;100148.78;;;4.45;nan
21545;BME280;10933;50.754;11.508;2023-12-07T08:08:11;100150.91;;;4.63;nan
21545;BME280;10933;50.754;11.508;2023-12-07T08:10:37;100162.09;;;4.80;nan
21545;BME280;10933;50.754;11.508;2023-12-07T08:13:03;100163.31;;;4.70;nan
21545;BME280;10933;50.754;11.508;2023-12-07T08:15:29;100155.28;;;4.70;nan
21545;BME280;10933;50.754;11.508;2023-12-07T08:17:55;100162.59;;;5.03;nan
21545;BME280;10933;50.754;11.508;2023-12-07T08:20:21;100162.16;;;4.93;nan
21545;BME280;10933;50.754;11.508;2023-12-07T08:22:47;100164.75;;;4.80;nan
21545;BME280;10933;50.754;11.508;2023-12-07T08:25:13;100173.34;;;5.16;nan
21545;BME280;10933;50.754;11.508;2023-12-07T08:27:39;100173.91;;;4.98;nan
21545;BME280;10933;50.754;11.508;2023-12-07T08:30:05;100159.25;;;4.88;nan
21545;BME280;10933;50.754;11.508;2023-12-07T08:32:31;100153.84;;;4.40;nan
21545;BME280;10933;50.754;11.508;2023-12-07T08:34:57;100171.19;;;4.85;nan
21545;BME280;10933;50.754;11.508;2023-12-07T08:37:23;100185.13;;;5.28;nan
21545;BME280;10933;50.754;11.508;2023-12-07T08:39:49;100177.16;;;4.87;nan
21545;BME280;10933;50.754;11.508;2023-12-07T08:42:15;100192.78;;;5.38;nan
21545;BME280;10933;50.754;11.508;2023-12-07T08:44:42;100191.63;;;5.06;nan
21545;BME280;10933;50.754;11.508;2023-12-07T08:47:08;100184.66;;;5.18;nan
21545;BME280;10933;50.754;11.508;2023-12-07T08:49:33;100188.91;;;5.54;nan
21545;BME280;10933;50.754;11.508;2023-12-07T08:51:59;100195.47;;;5.58;nan
21545;BME280;10933;50.754;11.508;2023-12-07T08:54:25;100206.22;;;5.71;nan
21545;BME280;10933;50.754;11.508;2023-12-07T08:56:51;100204.16;;;5.60;nan
21545;BME280;10933;50.754;11.508;2023-12-07T08:59:17;100200.84;;;5.58;nan
21545;BME280;10933;50.754;11.508;2023-12-07T09:01:43;100214.31;;;5.84;nan
21545;BME280;10933;50.754;11.508;2023-12-07T09:04:08;100219.91;;;6.03;nan
21545;BME280;10933;50.754;11.508;2023-12-07T09:06:36;100217.59;;;5.86;nan
21545;BME280;10933;50.754;11.508;2023-12-07T09:09:03;100206.88;;;5.73;nan
21545;BME280;10933;50.754;11.508;2023-12-07T09:11:30;100221.56;;;6.17;nan
21545;BME280;10933;50.754;11.508;2023-12-07T09:13:57;100212.50;;;5.98;nan
21545;BME280;10933;50.754;11.508;2023-12-07T09:16:24;100203.66;;;5.30;nan
21545;BME280;10933;50.754;11.508;2023-12-07T09:18:51;100210.72;;;5.57;nan
21545;BME280;10933;50.754;11.508;2023-12-07T09:21:17;100208.06;;;5.71;nan
21545;BME280;10933;50.754;11.508;2023-12-07T09:23:43;100213.63;;;5.69;nan
21545;BME280;10933;50.754;11.508;2023-12-07T09:26:08;100197.28;;;4.83;nan
21545;BME280;10933;50.754;11.508;2023-12-07T09:28:34;100205.69;;;5.21;nan
21545;BME280;10933;50.754;11.508;2023-12-07T09:31:00;100201.50;;;5.06;nan
21545;BME280;10933;50.754;11.508;2023-12-07T09:33:26;100196.13;;;5.06;nan
21545;BME280;10933;50.754;11.508;2023-12-07T09:35:53;100201.34;;;5.14;nan
21545;BME280;10933;50.754;11.508;2023-12-07T09:38:19;100208.28;;;5.69;nan
21545;BME280;10933;50.754;11.508;2023-12-07T09:40:46;100210.66;;;5.31;nan
21545;BME280;10933;50.754;11.508;2023-12-07T09:43:12;100218.63;;;5.85;nan
21545;BME280;10933;50.754;11.508;2023-12-07T09:45:38;100213.16;;;5.46;nan
21545;BME280;10933;50.754;11.508;2023-12-07T09:48:05;100202.78;;;5.16;nan
21545;BME280;10933;50.754;11.508;2023-12-07T09:50:33;100218.56;;;5.59;nan
21545;BME280;10933;50.754;11.508;2023-12-07T09:52:59;100210.84;;;5.29;nan
21545;BME280;10933;50.754;11.508;2023-12-07T09:55:25;100202.75;;;5.10;nan
21545;BME280;10933;50.754;11.508;2023-12-07T09:57:51;100209.94;;;5.64;nan
21545;BME280;10933;50.754;11.508;2023-12-07T10:00:17;100218.66;;;6.05;nan
21545;BME280;10933;50.754;11.508;2023-12-07T10:02:46;100228.97;;;6.15;nan
21545;BME280;10933;50.754;11.508;2023-12-07T10:05:14;100218.22;;;5.88;nan
21545;BME280;10933;50.754;11.508;2023-12-07T10:07:46;100215.78;;;6.00;nan
21545;BME280;10933;50.754;11.508;2023-12-07T10:10:17;100216.81;;;5.99;nan
21545;BME280;10933;50.754;11.508;2023-12-07T10:12:54;100202.69;;;5.57;nan
21545;BME280;10933;50.754;11.508;2023-12-07T10:15:22;100188.66;;;4.88;nan
21545;BME280;10933;50.754;11.508;2023-12-07T10:17:52;100190.31;;;5.37;nan
21545;BME280;10933;50.754;11.508;2023-12-07T10:20:28;100200.47;;;5.74;nan
21545;BME280;10933;50.754;11.508;2023-12-07T10:25:29;100204.78;;;5.69;nan
21545;BME280;10933;50.754;11.508;2023-12-07T10:27:55;100189.25;;;5.24;nan
21545;BME280;10933;50.754;11.508;2023-12-07T10:30:21;100186.31;;;5.19;nan
21545;BME280;10933;50.754;11.508;2023-12-07T10:32:51;100188.81;;;5.27;nan
21545;BME280;10933;50.754;11.508;2023-12-07T10:35:18;100189.75;;;5.61;nan
21545;BME280;10933;50.754;11.508;2023-12-07T10:37:45;100181.00;;;5.32;nan
21545;BME280;10933;50.754;11.508;2023-12-07T10:40:12;100188.91;;;5.54;nan
21545;BME280;10933;50.754;11.508;2023-12-07T10:42:41;100177.22;;;5.00;nan
21545;BME280;10933;50.754;11.508;2023-12-07T10:45:08;100174.69;;;5.47;nan
21545;BME280;10933;50.754;11.508;2023-12-07T10:47:37;100183.53;;;5.54;nan
21545;BME280;10933;50.754;11.508;2023-12-07T10:50:08;100195.44;;;5.45;nan
21545;BME280;10933;50.754;11.508;2023-12-07T10:52:44;100196.75;;;5.69;nan
21545;BME280;10933;50.754;11.508;2023-12-07T10:55:20;100185.59;;;5.52;nan
21545;BME280;10933;50.754;11.508;2023-12-07T10:57:47;100187.47;;;5.71;nan
21545;BME280;10933;50.754;11.508;2023-12-07T11:00:13;100198.06;;;5.99;nan
21545;BME280;10933;50.754;11.508;2023-12-07T11:02:39;100184.59;;;5.66;nan
21545;BME280;10933;50.754;11.508;2023-12-07T11:05:07;100173.44;;;5.43;nan
21545;BME280;10933;50.754;11.508;2023-12-07T11:10:33;100181.13;;;5.72;nan
21545;BME280;10933;50.754;11.508;2023-12-07T11:13:22;100184.00;;;5.84;nan
21545;BME280;10933;50.754;11.508;2023-12-07T11:15:48;100189.81;;;6.27;nan
21545;BME280;10933;50.754;11.508;2023-12-07T11:18:14;100175.22;;;6.10;nan
21545;BME280;10933;50.754;11.508;2023-12-07T11:20:42;100172.44;;;5.70;nan
21545;BME280;10933;50.754;11.508;2023-12-07T11:23:10;100177.81;;;5.83;nan
21545;BME280;10933;50.754;11.508;2023-12-07T11:25:42;100170.84;;;6.09;nan
21545;BME280;10933;50.754;11.508;2023-12-07T11:28:11;100168.31;;;5.48;nan
21545;BME280;10933;50.754;11.508;2023-12-07T11:30:42;100175.34;;;5.82;nan
21545;BME280;10933;50.754;11.508;2023-12-07T11:33:09;100181.56;;;6.29;nan
21545;BME280;10933;50.754;11.508;2023-12-07T11:38:29;100165.50;;;6.02;nan
21545;BME280;10933;50.754;11.508;2023-12-07T11:40:56;100154.53;;;5.51;nan
21545;BME280;10933;50.754;11.508;2023-12-07T11:46:04;100157.16;;;5.44;nan
21545;BME280;10933;50.754;11.508;2023-12-07T11:48:29;100154.66;;;5.29;nan
21545;BME280;10933;50.754;11.508;2023-12-07T11:50:56;100142.19;;;4.89;nan
21545;BME280;10933;50.754;11.508;2023-12-07T11:53:34;100138.66;;;4.82;nan
21545;BME280;10933;50.754;11.508;2023-12-07T11:56:03;100142.75;;;5.39;nan
21545;BME280;10933;50.754;11.508;2023-12-07T11:58:31;100132.69;;;4.80;nan
21545;BME280;10933;50.754;11.508;2023-12-07T12:00:58;100135.91;;;5.16;nan
21545;BME280;10933;50.754;11.508;2023-12-07T12:03:25;100130.34;;;5.11;nan
21545;BME280;10933;50.754;11.508;2023-12-07T12:05:51;100132.53;;;4.94;nan
21545;BME280;10933;50.754;11.508;2023-12-07T12:08:18;100137.88;;;5.75;nan
21545;BME280;10933;50.754;11.508;2023-12-07T12:10:45;100156.00;;;6.19;nan
21545;BME280;10933;50.754;11.508;2023-12-07T12:13:12;100148.59;;;6.22;nan
21545;BME280;10933;50.754;11.508;2023-12-07T12:15:39;100145.06;;;6.34;nan
21545;BME280;10933;50.754;11.508;2023-12-07T12:18:06;100145.25;;;6.53;nan
21545;BME280;10933;50.754;11.508;2023-12-07T12:20:32;100142.16;;;6.56;nan
21545;BME280;10933;50.754;11.508;2023-12-07T12:22:59;100147.34;;;6.37;nan
21545;BME280;10933;50.754;11.508;2023-12-07T12:25:29;100137.06;;;6.21;nan
21545;BME280;10933;50.754;11.508;2023-12-07T12:28:02;100134.59;;;5.93;nan
21545;BME280;10933;50.754;11.508;2023-12-07T12:30:29;100141.19;;;6.24;nan
21545;BME280;10933;50.754;11.508;2023-12-07T12:32:56;100151.00;;;6.63;nan
21545;BME280;10933;50.754;11.508;2023-12-07T12:35:23;100130.88;;;5.87;nan
21545;BME280;10933;50.754;11.508;2023-12-07T12:37:50;100149.34;;;6.68;nan
21545;BME280;10933;50.754;11.508;2023-12-07T12:40:21;100123.44;;;5.83;nan
21545;BME280;10933;50.754;11.508;2023-12-07T12:42:50;100137.03;;;6.34;nan
21545;BME280;10933;50.754;11.508;2023-12-07T12:45:18;100127.59;;;5.85;nan
21545;BME280;10933;50.754;11.508;2023-12-07T12:47:46;100138.03;;;6.53;nan
21545;BME280;10933;50.754;11.508;2023-12-07T12:50:38;100141.41;;;6.93;nan
21545;BME280;10933;50.754;11.508;2023-12-07T12:53:07;100120.59;;;6.11;nan
21545;BME280;10933;50.754;11.508;2023-12-07T12:55:39;100110.47;;;5.53;nan
21545;BME280;10933;50.754;11.508;2023-12-07T12:58:08;100100.81;;;5.66;nan
21545;BME280;10933;50.754;11.508;2023-12-07T13:00:37;100105.75;;;5.62;nan
21545;BME280;10933;50.754;11.508;2023-12-07T13:03:05;100120.34;;;6.39;nan
21545;BME280;10933;50.754;11.508;2023-12-07T13:05:32;100128.59;;;6.95;nan
21545;BME280;10933;50.754;11.508;2023-12-07T13:08:00;100132.31;;;6.94;nan
21545;BME280;10933;50.754;11.508;2023-12-07T13:10:27;100135.38;;;7.04;nan
21545;BME280;10933;50.754;11.508;2023-12-07T13:12:53;100112.69;;;6.42;nan
21545;BME280;10933;50.754;11.508;2023-12-07T13:15:18;100119.34;;;6.91;nan
21545;BME280;10933;50.754;11.508;2023-12-07T13:17:44;100122.13;;;7.09;nan
21545;BME280;10933;50.754;11.508;2023-12-07T13:20:11;100114.53;;;7.06;nan
21545;BME280;10933;50.754;11.508;2023-12-07T13:22:42;100115.47;;;6.81;nan